sensor_id;sensor_type;location;lat;lon;timestamp;temperature;humidity
72786;DHT22;60902;53.876;10.674;2022-08-21T00:00:05;20.20;82.60
72786;DHT22;60902;53.876;10.674;2022-08-21T00:00:38;20.20;82.70
72786;DHT22;60902;53.876;10.674;2022-08-21T00:01:11;20.20;82.60
72786;DHT22;60902;53.876;10.674;2022-08-21T00:01:43;20.20;82.60
72786;DHT22;60902;53.876;10.674;2022-08-21T00:02:21;20.20;82.60
72786;DHT22;60902;53.876;10.674;2022-08-21T00:02:56;20.20;82.60
72786;DHT22;60902;53.876;10.674;2022-08-21T00:03:47;20.30;82.70
72786;DHT22;60902;53.876;10.674;2022-08-21T00:04:09;20.20;82.60
72786;DHT22;60902;53.876;10.674;2022-08-21T00:04:56;20.20;82.60
72786;DHT22;60902;53.876;10.674;2022-08-21T00:07:59;20.30;82.70
72786;DHT22;60902;53.876;10.674;2022-08-21T00:08:36;20.30;82.70
72786;DHT22;60902;53.876;10.674;2022-08-21T00:09:26;20.30;82.60
72786;DHT22;60902;53.876;10.674;2022-08-21T00:12:15;20.20;82.60
72786;DHT22;60902;53.876;10.674;2022-08-21T00:13:31;20.30;82.70
72786;DHT22;60902;53.876;10.674;2022-08-21T00:13:56;20.20;82.60
72786;DHT22;60902;53.876;10.674;2022-08-21T00:14:29;20.20;82.60
72786;DHT22;60902;53.876;10.674;2022-08-21T00:15:27;20.20;82.70
72786;DHT22;60902;53.876;10.674;2022-08-21T00:16:12;20.20;82.60
72786;DHT22;60902;53.876;10.674;2022-08-21T00:16:49;20.20;82.50
72786;DHT22;60902;53.876;10.674;2022-08-21T00:17:24;20.20;83.50
72786;DHT22;60902;53.876;10.674;2022-08-21T00:19:10;20.30;82.70
72786;DHT22;60902;53.876;10.674;2022-08-21T00:20:04;20.20;82.60
72786;DHT22;60902;53.876;10.674;2022-08-21T00:27:02;20.20;82.50
72786;DHT22;60902;53.876;10.674;2022-08-21T00:27:15;20.20;82.50
72786;DHT22;60902;53.876;10.674;2022-08-21T00:27:45;20.30;83.40
72786;DHT22;60902;53.876;10.674;2022-08-21T00:30:21;20.20;82.50
72786;DHT22;60902;53.876;10.674;2022-08-21T00:31:08;20.20;82.50
72786;DHT22;60902;53.876;10.674;2022-08-21T00:37:03;20.20;82.50
72786;DHT22;60902;53.876;10.674;2022-08-21T00:38:07;20.20;82.50
72786;DHT22;60902;53.876;10.674;2022-08-21T00:43:22;20.20;82.40
72786;DHT22;60902;53.876;10.674;2022-08-21T00:52:45;20.20;83.30
72786;DHT22;60902;53.876;10.674;2022-08-21T00:53:06;20.20;82.40
72786;DHT22;60902;53.876;10.674;2022-08-21T00:53:26;20.20;82.30
72786;DHT22;60902;53.876;10.674;2022-08-21T00:54:06;20.20;82.30
72786;DHT22;60902;53.876;10.674;2022-08-21T00:54:33;20.20;82.30
72786;DHT22;60902;53.876;10.674;2022-08-21T00:55:07;20.20;82.30
72786;DHT22;60902;53.876;10.674;2022-08-21T00:55:48;20.20;82.30
72786;DHT22;60902;53.876;10.674;2022-08-21T00:57:09;20.20;82.30
72786;DHT22;60902;53.876;10.674;2022-08-21T01:02:07;20.20;82.30
72786;DHT22;60902;53.876;10.674;2022-08-21T01:03:08;20.20;82.40
72786;DHT22;60902;53.876;10.674;2022-08-21T01:03:57;20.20;82.30
72786;DHT22;60902;53.876;10.674;2022-08-21T01:05:09;20.20;82.30
72786;DHT22;60902;53.876;10.674;2022-08-21T01:05:25;20.20;82.30
72786;DHT22;60902;53.876;10.674;2022-08-21T01:05:42;20.20;82.30
72786;DHT22;60902;53.876;10.674;2022-08-21T01:06:03;20.20;82.30
72786;DHT22;60902;53.876;10.674;2022-08-21T01:08:14;20.20;82.30
72786;DHT22;60902;53.876;10.674;2022-08-21T01:12:02;20.20;82.30
72786;DHT22;60902;53.876;10.674;2022-08-21T01:12:32;20.20;82.30
72786;DHT22;60902;53.876;10.674;2022-08-21T01:12:45;20.20;82.30
72786;DHT22;60902;53.876;10.674;2022-08-21T01:13:17;20.20;82.30
72786;DHT22;60902;53.876;10.674;2022-08-21T01:13:47;20.20;82.30
72786;DHT22;60902;53.876;10.674;2022-08-21T01:14:06;20.20;82.30
72786;DHT22;60902;53.876;10.674;2022-08-21T01:15:47;20.20;82.30
72786;DHT22;60902;53.876;10.674;2022-08-21T01:16:12;20.20;82.30
72786;DHT22;60902;53.876;10.674;2022-08-21T01:16:40;20.20;82.30
72786;DHT22;60902;53.876;10.674;2022-08-21T01:17:02;20.20;82.30
72786;DHT22;60902;53.876;10.674;2022-08-21T01:17:26;20.20;82.30
72786;DHT22;60902;53.876;10.674;2022-08-21T01:17:59;20.20;82.30
72786;DHT22;60902;53.876;10.674;2022-08-21T01:18:59;20.30;82.30
72786;DHT22;60902;53.876;10.674;2022-08-21T01:19:18;20.20;82.20
72786;DHT22;60902;53.876;10.674;2022-08-21T01:19:48;20.20;82.20
72786;DHT22;60902;53.876;10.674;2022-08-21T01:20:08;20.20;82.20
72786;DHT22;60902;53.876;10.674;2022-08-21T01:21:08;20.20;82.20
72786;DHT22;60902;53.876;10.674;2022-08-21T01:21:30;20.20;82.30
72786;DHT22;60902;53.876;10.674;2022-08-21T01:22:07;20.20;82.20
72786;DHT22;60902;53.876;10.674;2022-08-21T01:22:43;20.20;82.30
72786;DHT22;60902;53.876;10.674;2022-08-21T01:22:59;20.20;82.20
72786;DHT22;60902;53.876;10.674;2022-08-21T01:24:27;20.20;82.30
72786;DHT22;60902;53.876;10.674;2022-08-21T01:24:49;20.20;82.30
72786;DHT22;60902;53.876;10.674;2022-08-21T01:25:05;20.20;82.20
72786;DHT22;60902;53.876;10.674;2022-08-21T01:26:08;20.20;82.20
72786;DHT22;60902;53.876;10.674;2022-08-21T01:27:19;20.20;82.20
72786;DHT22;60902;53.876;10.674;2022-08-21T01:29:28;20.20;82.20
72786;DHT22;60902;53.876;10.674;2022-08-21T01:31:09;20.30;82.30
72786;DHT22;60902;53.876;10.674;2022-08-21T01:31:33;20.20;82.20
72786;DHT22;60902;53.876;10.674;2022-08-21T01:31:53;20.20;82.20
72786;DHT22;60902;53.876;10.674;2022-08-21T01:32:25;20.20;82.20
72786;DHT22;60902;53.876;10.674;2022-08-21T01:32:46;20.20;82.20
72786;DHT22;60902;53.876;10.674;2022-08-21T01:33:13;20.20;83.10
72786;DHT22;60902;53.876;10.674;2022-08-21T01:33:54;20.20;82.20
72786;DHT22;60902;53.876;10.674;2022-08-21T01:34:12;20.20;82.30
72786;DHT22;60902;53.876;10.674;2022-08-21T01:34:28;20.20;82.20
72786;DHT22;60902;53.876;10.674;2022-08-21T01:34:45;20.20;82.10
72786;DHT22;60902;53.876;10.674;2022-08-21T01:35:30;20.20;82.10
72786;DHT22;60902;53.876;10.674;2022-08-21T01:35:59;20.10;82.10
72786;DHT22;60902;53.876;10.674;2022-08-21T01:36:26;20.20;82.10
72786;DHT22;60902;53.876;10.674;2022-08-21T01:37:21;20.20;82.10
72786;DHT22;60902;53.876;10.674;2022-08-21T01:37:59;20.20;82.10
72786;DHT22;60902;53.876;10.674;2022-08-21T01:38:29;20.20;82.10
72786;DHT22;60902;53.876;10.674;2022-08-21T01:38:44;20.20;82.20
72786;DHT22;60902;53.876;10.674;2022-08-21T01:39:06;20.20;82.20
72786;DHT22;60902;53.876;10.674;2022-08-21T01:39:25;20.20;82.20
72786;DHT22;60902;53.876;10.674;2022-08-21T01:39:40;20.20;82.10
72786;DHT22;60902;53.876;10.674;2022-08-21T01:39:52;20.20;82.10
72786;DHT22;60902;53.876;10.674;2022-08-21T01:40:09;20.20;82.10
72786;DHT22;60902;53.876;10.674;2022-08-21T01:40:24;20.20;82.10
72786;DHT22;60902;53.876;10.674;2022-08-21T01:40:39;20.20;82.10
72786;DHT22;60902;53.876;10.674;2022-08-21T01:41:07;20.20;82.10
72786;DHT22;60902;53.876;10.674;2022-08-21T01:41:29;20.20;82.10
72786;DHT22;60902;53.876;10.674;2022-08-21T01:41:52;20.20;82.10
72786;DHT22;60902;53.876;10.674;2022-08-21T01:42:04;20.20;82.10
72786;DHT22;60902;53.876;10.674;2022-08-21T01:42:19;20.20;82.10
72786;DHT22;60902;53.876;10.674;2022-08-21T01:42:30;20.20;82.10
72786;DHT22;60902;53.876;10.674;2022-08-21T01:42:45;20.20;82.10
72786;DHT22;60902;53.876;10.674;2022-08-21T01:42:59;20.20;82.10
72786;DHT22;60902;53.876;10.674;2022-08-21T01:43:21;20.20;82.10
72786;DHT22;60902;53.876;10.674;2022-08-21T01:43:32;20.20;82.20
72786;DHT22;60902;53.876;10.674;2022-08-21T01:43:44;20.20;82.00
72786;DHT22;60902;53.876;10.674;2022-08-21T01:43:57;20.20;82.10
72786;DHT22;60902;53.876;10.674;2022-08-21T01:44:10;20.20;82.10
72786;DHT22;60902;53.876;10.674;2022-08-21T01:44:23;20.20;82.10
72786;DHT22;60902;53.876;10.674;2022-08-21T01:44:40;20.20;82.00
72786;DHT22;60902;53.876;10.674;2022-08-21T01:44:54;20.20;82.00
72786;DHT22;60902;53.876;10.674;2022-08-21T01:45:08;20.20;82.00
72786;DHT22;60902;53.876;10.674;2022-08-21T01:45:20;20.20;82.10
72786;DHT22;60902;53.876;10.674;2022-08-21T01:45:37;20.20;82.00
72786;DHT22;60902;53.876;10.674;2022-08-21T01:45:51;20.20;82.00
72786;DHT22;60902;53.876;10.674;2022-08-21T01:46:03;20.20;82.10
72786;DHT22;60902;53.876;10.674;2022-08-21T01:46:18;20.20;82.10
72786;DHT22;60902;53.876;10.674;2022-08-21T01:46:30;20.20;82.10
72786;DHT22;60902;53.876;10.674;2022-08-21T01:46:43;20.20;82.10
72786;DHT22;60902;53.876;10.674;2022-08-21T01:46:55;20.20;82.00
72786;DHT22;60902;53.876;10.674;2022-08-21T01:47:10;20.20;82.00
72786;DHT22;60902;53.876;10.674;2022-08-21T01:47:25;20.20;82.00
72786;DHT22;60902;53.876;10.674;2022-08-21T01:47:40;20.20;82.00
72786;DHT22;60902;53.876;10.674;2022-08-21T01:47:52;20.20;82.00
72786;DHT22;60902;53.876;10.674;2022-08-21T01:48:04;20.20;82.00
72786;DHT22;60902;53.876;10.674;2022-08-21T01:48:17;20.20;82.10
72786;DHT22;60902;53.876;10.674;2022-08-21T01:48:31;20.20;82.00
72786;DHT22;60902;53.876;10.674;2022-08-21T01:48:44;20.20;82.00
72786;DHT22;60902;53.876;10.674;2022-08-21T01:49:00;20.20;82.00
72786;DHT22;60902;53.876;10.674;2022-08-21T01:49:11;20.20;82.00
72786;DHT22;60902;53.876;10.674;2022-08-21T01:49:27;20.20;82.00
72786;DHT22;60902;53.876;10.674;2022-08-21T01:49:45;20.20;82.00
72786;DHT22;60902;53.876;10.674;2022-08-21T01:50:02;20.10;82.00
72786;DHT22;60902;53.876;10.674;2022-08-21T01:56:37;20.20;82.00
72786;DHT22;60902;53.876;10.674;2022-08-21T01:57:01;20.20;82.00
72786;DHT22;60902;53.876;10.674;2022-08-21T01:57:28;20.20;82.00
72786;DHT22;60902;53.876;10.674;2022-08-21T01:57:44;20.20;82.00
72786;DHT22;60902;53.876;10.674;2022-08-21T01:58:24;20.20;82.00
72786;DHT22;60902;53.876;10.674;2022-08-21T01:59:29;20.20;82.00
72786;DHT22;60902;53.876;10.674;2022-08-21T02:03:35;20.20;82.00
72786;DHT22;60902;53.876;10.674;2022-08-21T02:03:50;20.20;81.90
72786;DHT22;60902;53.876;10.674;2022-08-21T02:04:01;20.20;81.90
72786;DHT22;60902;53.876;10.674;2022-08-21T02:04:22;20.20;81.90
72786;DHT22;60902;53.876;10.674;2022-08-21T02:04:46;20.20;81.90
72786;DHT22;60902;53.876;10.674;2022-08-21T02:05:05;20.20;81.90
72786;DHT22;60902;53.876;10.674;2022-08-21T02:05:19;20.20;81.90
72786;DHT22;60902;53.876;10.674;2022-08-21T02:05:33;20.20;81.90
72786;DHT22;60902;53.876;10.674;2022-08-21T02:05:48;20.20;81.90
72786;DHT22;60902;53.876;10.674;2022-08-21T02:06:05;20.20;81.90
72786;DHT22;60902;53.876;10.674;2022-08-21T02:06:35;20.20;81.90
72786;DHT22;60902;53.876;10.674;2022-08-21T02:06:57;20.20;81.90
72786;DHT22;60902;53.876;10.674;2022-08-21T02:07:14;20.10;82.80
72786;DHT22;60902;53.876;10.674;2022-08-21T02:07:36;20.20;81.90
72786;DHT22;60902;53.876;10.674;2022-08-21T02:08:01;20.20;81.90
72786;DHT22;60902;53.876;10.674;2022-08-21T02:08:24;20.20;81.90
72786;DHT22;60902;53.876;10.674;2022-08-21T02:09:53;20.20;81.90
72786;DHT22;60902;53.876;10.674;2022-08-21T02:10:29;20.20;81.90
72786;DHT22;60902;53.876;10.674;2022-08-21T02:10:53;20.20;81.90
72786;DHT22;60902;53.876;10.674;2022-08-21T02:11:27;20.20;81.90
72786;DHT22;60902;53.876;10.674;2022-08-21T02:12:21;20.10;81.80
72786;DHT22;60902;53.876;10.674;2022-08-21T02:12:43;20.10;81.80
72786;DHT22;60902;53.876;10.674;2022-08-21T02:13:01;20.20;81.90
72786;DHT22;60902;53.876;10.674;2022-08-21T02:13:12;20.20;81.80
72786;DHT22;60902;53.876;10.674;2022-08-21T02:13:24;20.20;81.80
72786;DHT22;60902;53.876;10.674;2022-08-21T02:13:36;20.20;81.80
72786;DHT22;60902;53.876;10.674;2022-08-21T02:13:50;20.20;81.80
72786;DHT22;60902;53.876;10.674;2022-08-21T02:14:01;20.20;81.80
72786;DHT22;60902;53.876;10.674;2022-08-21T02:14:14;20.20;81.80
72786;DHT22;60902;53.876;10.674;2022-08-21T02:14:26;20.10;81.80
72786;DHT22;60902;53.876;10.674;2022-08-21T02:14:37;20.20;81.80
72786;DHT22;60902;53.876;10.674;2022-08-21T02:14:48;20.20;81.80
72786;DHT22;60902;53.876;10.674;2022-08-21T02:15:01;20.20;81.90
72786;DHT22;60902;53.876;10.674;2022-08-21T02:15:12;20.20;81.80
72786;DHT22;60902;53.876;10.674;2022-08-21T02:15:23;20.10;81.80
72786;DHT22;60902;53.876;10.674;2022-08-21T02:15:55;20.20;81.80
72786;DHT22;60902;53.876;10.674;2022-08-21T02:16:19;20.20;81.80
72786;DHT22;60902;53.876;10.674;2022-08-21T02:16:46;20.20;81.80
72786;DHT22;60902;53.876;10.674;2022-08-21T02:16:59;20.20;81.90
72786;DHT22;60902;53.876;10.674;2022-08-21T02:17:12;20.10;81.80
72786;DHT22;60902;53.876;10.674;2022-08-21T02:17:24;20.10;81.80
72786;DHT22;60902;53.876;10.674;2022-08-21T02:17:40;20.10;81.70
72786;DHT22;60902;53.876;10.674;2022-08-21T02:17:57;20.20;81.80
72786;DHT22;60902;53.876;10.674;2022-08-21T02:18:14;20.10;81.70
72786;DHT22;60902;53.876;10.674;2022-08-21T02:18:25;20.20;81.80
72786;DHT22;60902;53.876;10.674;2022-08-21T02:18:36;20.20;81.80
72786;DHT22;60902;53.876;10.674;2022-08-21T02:18:48;20.20;81.80
72786;DHT22;60902;53.876;10.674;2022-08-21T02:18:59;20.20;81.90
72786;DHT22;60902;53.876;10.674;2022-08-21T02:19:11;20.10;81.80
72786;DHT22;60902;53.876;10.674;2022-08-21T02:19:24;20.20;81.90
72786;DHT22;60902;53.876;10.674;2022-08-21T02:19:37;20.20;81.80
72786;DHT22;60902;53.876;10.674;2022-08-21T02:19:53;20.20;81.80
72786;DHT22;60902;53.876;10.674;2022-08-21T02:20:14;20.10;81.80
72786;DHT22;60902;53.876;10.674;2022-08-21T02:20:36;20.20;81.80
72786;DHT22;60902;53.876;10.674;2022-08-21T02:21:21;20.20;81.80
72786;DHT22;60902;53.876;10.674;2022-08-21T02:21:49;20.20;81.90
72786;DHT22;60902;53.876;10.674;2022-08-21T02:22:20;20.20;81.80
72786;DHT22;60902;53.876;10.674;2022-08-21T02:22:43;20.10;81.80
72786;DHT22;60902;53.876;10.674;2022-08-21T02:22:55;20.20;81.80
72786;DHT22;60902;53.876;10.674;2022-08-21T02:23:07;20.20;81.80
72786;DHT22;60902;53.876;10.674;2022-08-21T02:23:18;20.10;81.70
72786;DHT22;60902;53.876;10.674;2022-08-21T02:23:30;20.10;81.70
72786;DHT22;60902;53.876;10.674;2022-08-21T02:23:42;20.20;81.80
72786;DHT22;60902;53.876;10.674;2022-08-21T02:23:54;20.20;81.80
72786;DHT22;60902;53.876;10.674;2022-08-21T02:24:06;20.20;81.80
72786;DHT22;60902;53.876;10.674;2022-08-21T02:24:20;20.20;81.80
72786;DHT22;60902;53.876;10.674;2022-08-21T02:24:36;20.20;81.80
72786;DHT22;60902;53.876;10.674;2022-08-21T02:24:48;20.10;81.70
72786;DHT22;60902;53.876;10.674;2022-08-21T02:25:00;20.20;81.80
72786;DHT22;60902;53.876;10.674;2022-08-21T02:25:15;20.20;81.80
72786;DHT22;60902;53.876;10.674;2022-08-21T02:25:30;20.10;81.70
72786;DHT22;60902;53.876;10.674;2022-08-21T02:25:42;20.20;81.80
72786;DHT22;60902;53.876;10.674;2022-08-21T02:25:53;20.10;81.70
72786;DHT22;60902;53.876;10.674;2022-08-21T02:26:06;20.20;81.80
72786;DHT22;60902;53.876;10.674;2022-08-21T02:26:26;20.20;81.80
72786;DHT22;60902;53.876;10.674;2022-08-21T02:26:48;20.20;81.80
72786;DHT22;60902;53.876;10.674;2022-08-21T02:27:07;20.20;81.80
72786;DHT22;60902;53.876;10.674;2022-08-21T02:27:25;20.20;81.80
72786;DHT22;60902;53.876;10.674;2022-08-21T02:27:41;20.20;81.80
72786;DHT22;60902;53.876;10.674;2022-08-21T02:28:13;20.20;81.80
72786;DHT22;60902;53.876;10.674;2022-08-21T02:28:27;20.20;81.80
72786;DHT22;60902;53.876;10.674;2022-08-21T02:28:38;20.20;81.80
72786;DHT22;60902;53.876;10.674;2022-08-21T02:28:49;20.20;81.80
72786;DHT22;60902;53.876;10.674;2022-08-21T02:29:01;20.10;81.70
72786;DHT22;60902;53.876;10.674;2022-08-21T02:29:13;20.20;81.80
72786;DHT22;60902;53.876;10.674;2022-08-21T02:29:24;20.20;81.80
72786;DHT22;60902;53.876;10.674;2022-08-21T02:29:35;20.20;81.80
72786;DHT22;60902;53.876;10.674;2022-08-21T02:29:46;20.20;81.80
72786;DHT22;60902;53.876;10.674;2022-08-21T02:29:58;20.10;81.70
72786;DHT22;60902;53.876;10.674;2022-08-21T02:30:12;20.20;81.70
72786;DHT22;60902;53.876;10.674;2022-08-21T02:30:25;20.10;81.70
72786;DHT22;60902;53.876;10.674;2022-08-21T02:30:39;20.10;81.70
72786;DHT22;60902;53.876;10.674;2022-08-21T02:30:51;20.20;81.80
72786;DHT22;60902;53.876;10.674;2022-08-21T02:31:03;20.20;81.70
72786;DHT22;60902;53.876;10.674;2022-08-21T02:31:15;20.20;81.80
72786;DHT22;60902;53.876;10.674;2022-08-21T02:31:27;20.20;81.70
72786;DHT22;60902;53.876;10.674;2022-08-21T02:31:38;20.20;81.70
72786;DHT22;60902;53.876;10.674;2022-08-21T02:31:49;20.20;81.70
72786;DHT22;60902;53.876;10.674;2022-08-21T02:32:00;20.20;81.70
72786;DHT22;60902;53.876;10.674;2022-08-21T02:32:10;20.20;81.70
72786;DHT22;60902;53.876;10.674;2022-08-21T02:32:21;20.20;81.70
72786;DHT22;60902;53.876;10.674;2022-08-21T02:32:32;20.20;81.70
72786;DHT22;60902;53.876;10.674;2022-08-21T02:32:43;20.20;81.70
72786;DHT22;60902;53.876;10.674;2022-08-21T02:32:54;20.20;81.80
72786;DHT22;60902;53.876;10.674;2022-08-21T02:33:07;20.20;81.70
72786;DHT22;60902;53.876;10.674;2022-08-21T02:33:20;20.20;81.70
72786;DHT22;60902;53.876;10.674;2022-08-21T02:33:31;20.20;81.70
72786;DHT22;60902;53.876;10.674;2022-08-21T02:33:42;20.20;81.70
72786;DHT22;60902;53.876;10.674;2022-08-21T02:33:53;20.20;81.70
72786;DHT22;60902;53.876;10.674;2022-08-21T02:34:04;20.20;81.80
72786;DHT22;60902;53.876;10.674;2022-08-21T02:34:16;20.20;81.80
72786;DHT22;60902;53.876;10.674;2022-08-21T02:34:27;20.20;81.70
72786;DHT22;60902;53.876;10.674;2022-08-21T02:34:38;20.20;81.80
72786;DHT22;60902;53.876;10.674;2022-08-21T02:34:49;20.20;81.70
72786;DHT22;60902;53.876;10.674;2022-08-21T02:35:00;20.10;81.70
72786;DHT22;60902;53.876;10.674;2022-08-21T02:35:12;20.20;81.70
72786;DHT22;60902;53.876;10.674;2022-08-21T02:35:23;20.20;81.70
72786;DHT22;60902;53.876;10.674;2022-08-21T02:35:34;20.20;81.80
72786;DHT22;60902;53.876;10.674;2022-08-21T02:35:47;20.20;81.70
72786;DHT22;60902;53.876;10.674;2022-08-21T02:35:58;20.20;81.70
72786;DHT22;60902;53.876;10.674;2022-08-21T02:36:09;20.20;81.70
72786;DHT22;60902;53.876;10.674;2022-08-21T02:36:20;20.10;81.70
72786;DHT22;60902;53.876;10.674;2022-08-21T02:36:31;20.10;81.60
72786;DHT22;60902;53.876;10.674;2022-08-21T02:36:42;20.10;81.60
72786;DHT22;60902;53.876;10.674;2022-08-21T02:36:53;20.10;81.60
72786;DHT22;60902;53.876;10.674;2022-08-21T02:37:04;20.10;81.60
72786;DHT22;60902;53.876;10.674;2022-08-21T02:37:15;20.10;81.60
72786;DHT22;60902;53.876;10.674;2022-08-21T02:37:26;20.20;81.70
72786;DHT22;60902;53.876;10.674;2022-08-21T02:37:48;20.20;81.70
72786;DHT22;60902;53.876;10.674;2022-08-21T02:38:02;20.20;81.70
72786;DHT22;60902;53.876;10.674;2022-08-21T02:38:17;20.20;81.70
72786;DHT22;60902;53.876;10.674;2022-08-21T02:38:30;20.20;81.70
72786;DHT22;60902;53.876;10.674;2022-08-21T02:38:42;20.10;81.60
72786;DHT22;60902;53.876;10.674;2022-08-21T02:38:53;20.20;81.70
72786;DHT22;60902;53.876;10.674;2022-08-21T02:39:05;20.20;81.70
72786;DHT22;60902;53.876;10.674;2022-08-21T02:39:16;20.20;81.70
72786;DHT22;60902;53.876;10.674;2022-08-21T02:39:27;20.10;81.60
72786;DHT22;60902;53.876;10.674;2022-08-21T02:39:38;20.20;81.70
72786;DHT22;60902;53.876;10.674;2022-08-21T02:39:49;20.10;81.60
72786;DHT22;60902;53.876;10.674;2022-08-21T02:40:00;20.10;81.70
72786;DHT22;60902;53.876;10.674;2022-08-21T02:40:12;20.20;81.70
72786;DHT22;60902;53.876;10.674;2022-08-21T02:40:26;20.20;81.60
72786;DHT22;60902;53.876;10.674;2022-08-21T02:40:40;20.20;81.70
72786;DHT22;60902;53.876;10.674;2022-08-21T02:40:53;20.20;81.70
72786;DHT22;60902;53.876;10.674;2022-08-21T02:41:05;20.20;81.70
72786;DHT22;60902;53.876;10.674;2022-08-21T02:41:18;20.20;81.60
72786;DHT22;60902;53.876;10.674;2022-08-21T02:41:29;20.20;81.70
72786;DHT22;60902;53.876;10.674;2022-08-21T02:41:40;20.20;81.70
72786;DHT22;60902;53.876;10.674;2022-08-21T02:41:51;20.20;81.70
72786;DHT22;60902;53.876;10.674;2022-08-21T02:42:04;20.10;81.60
72786;DHT22;60902;53.876;10.674;2022-08-21T02:42:16;20.10;81.60
72786;DHT22;60902;53.876;10.674;2022-08-21T02:42:27;20.10;81.60
72786;DHT22;60902;53.876;10.674;2022-08-21T02:42:38;20.10;81.60
72786;DHT22;60902;53.876;10.674;2022-08-21T02:42:50;20.20;81.60
72786;DHT22;60902;53.876;10.674;2022-08-21T02:43:04;20.20;81.70
72786;DHT22;60902;53.876;10.674;2022-08-21T02:43:15;20.20;81.70
72786;DHT22;60902;53.876;10.674;2022-08-21T02:43:28;20.20;81.70
72786;DHT22;60902;53.876;10.674;2022-08-21T02:43:39;20.20;81.60
72786;DHT22;60902;53.876;10.674;2022-08-21T02:43:50;20.20;81.60
72786;DHT22;60902;53.876;10.674;2022-08-21T02:44:01;20.10;81.60
72786;DHT22;60902;53.876;10.674;2022-08-21T02:44:12;20.20;81.60
72786;DHT22;60902;53.876;10.674;2022-08-21T02:44:23;20.20;81.60
72786;DHT22;60902;53.876;10.674;2022-08-21T02:44:35;20.20;81.60
72786;DHT22;60902;53.876;10.674;2022-08-21T02:44:46;20.20;81.60
72786;DHT22;60902;53.876;10.674;2022-08-21T02:44:57;20.10;81.50
72786;DHT22;60902;53.876;10.674;2022-08-21T02:45:09;20.20;81.60
72786;DHT22;60902;53.876;10.674;2022-08-21T02:45:20;20.20;81.60
72786;DHT22;60902;53.876;10.674;2022-08-21T02:45:32;20.20;81.60
72786;DHT22;60902;53.876;10.674;2022-08-21T02:45:44;20.20;81.60
72786;DHT22;60902;53.876;10.674;2022-08-21T02:45:56;20.20;81.70
72786;DHT22;60902;53.876;10.674;2022-08-21T02:46:10;20.10;81.50
72786;DHT22;60902;53.876;10.674;2022-08-21T02:46:22;20.20;81.60
72786;DHT22;60902;53.876;10.674;2022-08-21T02:46:33;20.20;81.60
72786;DHT22;60902;53.876;10.674;2022-08-21T02:46:45;20.10;81.60
72786;DHT22;60902;53.876;10.674;2022-08-21T02:46:55;20.20;81.60
72786;DHT22;60902;53.876;10.674;2022-08-21T02:47:06;20.20;81.60
72786;DHT22;60902;53.876;10.674;2022-08-21T02:47:17;20.10;81.60
72786;DHT22;60902;53.876;10.674;2022-08-21T02:47:28;20.20;81.60
72786;DHT22;60902;53.876;10.674;2022-08-21T02:47:47;20.10;81.60
72786;DHT22;60902;53.876;10.674;2022-08-21T02:47:59;20.20;81.60
72786;DHT22;60902;53.876;10.674;2022-08-21T02:48:13;20.10;81.50
72786;DHT22;60902;53.876;10.674;2022-08-21T02:48:27;20.20;81.60
72786;DHT22;60902;53.876;10.674;2022-08-21T02:48:39;20.10;81.50
72786;DHT22;60902;53.876;10.674;2022-08-21T02:48:50;20.10;81.50
72786;DHT22;60902;53.876;10.674;2022-08-21T02:49:02;20.20;81.60
72786;DHT22;60902;53.876;10.674;2022-08-21T02:49:12;20.10;81.50
72786;DHT22;60902;53.876;10.674;2022-08-21T02:49:23;20.20;81.60
72786;DHT22;60902;53.876;10.674;2022-08-21T02:49:34;20.20;81.60
72786;DHT22;60902;53.876;10.674;2022-08-21T02:49:45;20.10;81.50
72786;DHT22;60902;53.876;10.674;2022-08-21T02:49:56;20.20;81.60
72786;DHT22;60902;53.876;10.674;2022-08-21T02:50:08;20.10;81.50
72786;DHT22;60902;53.876;10.674;2022-08-21T02:50:21;20.20;81.60
72786;DHT22;60902;53.876;10.674;2022-08-21T02:50:34;20.20;81.60
72786;DHT22;60902;53.876;10.674;2022-08-21T02:50:51;20.10;81.50
72786;DHT22;60902;53.876;10.674;2022-08-21T02:51:05;20.20;81.60
72786;DHT22;60902;53.876;10.674;2022-08-21T02:51:18;20.20;81.60
72786;DHT22;60902;53.876;10.674;2022-08-21T02:51:30;20.20;81.60
72786;DHT22;60902;53.876;10.674;2022-08-21T02:51:41;20.20;81.60
72786;DHT22;60902;53.876;10.674;2022-08-21T02:51:52;20.10;81.50
72786;DHT22;60902;53.876;10.674;2022-08-21T02:52:03;20.20;81.60
72786;DHT22;60902;53.876;10.674;2022-08-21T02:52:16;20.10;81.50
72786;DHT22;60902;53.876;10.674;2022-08-21T02:52:28;20.20;81.60
72786;DHT22;60902;53.876;10.674;2022-08-21T02:52:39;20.10;81.50
72786;DHT22;60902;53.876;10.674;2022-08-21T02:52:50;20.20;81.60
72786;DHT22;60902;53.876;10.674;2022-08-21T02:53:03;20.20;81.60
72786;DHT22;60902;53.876;10.674;2022-08-21T02:53:15;20.20;81.60
72786;DHT22;60902;53.876;10.674;2022-08-21T02:53:27;20.10;81.50
72786;DHT22;60902;53.876;10.674;2022-08-21T02:53:39;20.20;81.60
72786;DHT22;60902;53.876;10.674;2022-08-21T02:53:52;20.10;81.50
72786;DHT22;60902;53.876;10.674;2022-08-21T02:54:03;20.20;81.60
72786;DHT22;60902;53.876;10.674;2022-08-21T02:54:14;20.10;81.50
72786;DHT22;60902;53.876;10.674;2022-08-21T02:54:25;20.10;81.40
72786;DHT22;60902;53.876;10.674;2022-08-21T02:54:36;20.10;81.50
72786;DHT22;60902;53.876;10.674;2022-08-21T02:54:47;20.20;81.50
72786;DHT22;60902;53.876;10.674;2022-08-21T02:54:58;20.10;81.50
72786;DHT22;60902;53.876;10.674;2022-08-21T02:55:08;20.20;81.50
72786;DHT22;60902;53.876;10.674;2022-08-21T02:55:22;20.10;81.50
72786;DHT22;60902;53.876;10.674;2022-08-21T02:55:37;20.10;81.50
72786;DHT22;60902;53.876;10.674;2022-08-21T02:55:50;20.10;81.50
72786;DHT22;60902;53.876;10.674;2022-08-21T02:56:05;20.10;81.40
72786;DHT22;60902;53.876;10.674;2022-08-21T02:56:18;20.10;81.40
72786;DHT22;60902;53.876;10.674;2022-08-21T02:56:33;20.20;81.50
72786;DHT22;60902;53.876;10.674;2022-08-21T02:56:43;20.20;81.50
72786;DHT22;60902;53.876;10.674;2022-08-21T02:56:54;20.10;81.40
72786;DHT22;60902;53.876;10.674;2022-08-21T02:57:05;20.10;81.40
72786;DHT22;60902;53.876;10.674;2022-08-21T02:57:18;20.10;82.00
72786;DHT22;60902;53.876;10.674;2022-08-21T02:57:28;20.10;81.40
72786;DHT22;60902;53.876;10.674;2022-08-21T02:57:40;20.10;81.40
72786;DHT22;60902;53.876;10.674;2022-08-21T02:57:52;20.10;81.40
72786;DHT22;60902;53.876;10.674;2022-08-21T02:58:06;20.10;81.40
72786;DHT22;60902;53.876;10.674;2022-08-21T02:58:20;20.10;81.50
72786;DHT22;60902;53.876;10.674;2022-08-21T02:58:34;20.20;81.50